Time;durP1;ratioP1;P1;durP2;ratioP2;P2;SDS_P1;SDS_P2;PMS_P1;PMS_P2;Temp;Humidity;BMP_temperature;BMP_pressure;BME280_temperature;BME280_humidity;BME280_pressure;Samples;Min_cycle;Max_cycle;Signal;HPM_P1;HPM_P2
2021/12/31 00:00:09;;;;;;;;;;;10.80;99.90;;;;;;5027228;28;19917;-77
2021/12/31 00:02:34;;;;;;;;;;;10.80;99.90;;;;;;5010432;28;19922;-77
2021/12/31 00:05:00;;;;;;;;;;;10.80;99.90;;;;;;5042879;28;19917;-77
2021/12/31 00:07:25;;;;;;;;;;;10.80;99.90;;;;;;5043413;28;19967;-77
2021/12/31 00:09:51;;;;;;;;;;;10.80;99.90;;;;;;5028548;28;19919;-77
2021/12/31 00:12:16;;;;;;;;;;;10.80;99.90;;;;;;5045493;28;19909;-76
2021/12/31 00:14:42;;;;;;;;;;;10.80;99.90;;;;;;5046378;28;19913;-76
2021/12/31 00:17:07;;;;;;;;;;;10.70;99.90;;;;;;5025879;28;19926;-77
2021/12/31 00:19:39;;;;;;;;;;;10.70;99.90;;;;;;5026871;28;19962;-77
2021/12/31 00:22:24;;;;;;;;;;;10.70;99.90;;;;;;5045209;28;20272;-76
2021/12/31 00:24:49;;;;;;;;;;;10.60;99.90;;;;;;5031379;28;19921;-77
2021/12/31 00:27:15;;;;;;;;;;;10.60;99.90;;;;;;5040972;28;19966;-77
2021/12/31 00:29:40;;;;;;;;;;;10.60;99.90;;;;;;5023928;28;19917;-77
2021/12/31 00:32:06;;;;;;;;;;;10.60;99.90;;;;;;5023170;28;19935;-77
2021/12/31 00:34:31;;;;;;;;;;;10.60;99.90;;;;;;5042549;28;19987;-78
2021/12/31 00:36:57;;;;;;;;;;;10.50;99.90;;;;;;5024787;28;20372;-78
2021/12/31 00:39:22;;;;;;;;;;;10.50;99.90;;;;;;5042600;28;19920;-77
2021/12/31 00:41:48;;;;;;;;;;;10.40;99.90;;;;;;5022851;28;19913;-77
2021/12/31 00:44:14;;;;;;;;;;;10.40;99.90;;;;;;5043785;28;19995;-78
2021/12/31 00:46:39;;;;;;;;;;;10.30;99.90;;;;;;5043555;28;19909;-77
2021/12/31 00:49:06;;;;;;;;;;;10.10;99.90;;;;;;5027317;28;19952;-77
2021/12/31 00:51:32;;;;;;;;;;;10.00;99.90;;;;;;5043517;28;19909;-77
2021/12/31 00:53:58;;;;;;;;;;;9.90;99.90;;;;;;5018675;28;20102;-78
2021/12/31 00:56:23;;;;;;;;;;;9.80;99.90;;;;;;5025156;28;20366;-78
2021/12/31 00:58:49;;;;;;;;;;;9.70;99.90;;;;;;5023478;28;19917;-77
2021/12/31 01:01:20;;;;;;;;;;;9.80;99.90;;;;;;5020430;28;19921;-77
2021/12/31 01:03:46;;;;;;;;;;;9.70;99.90;;;;;;5022913;28;19919;-78
2021/12/31 01:06:12;;;;;;;;;;;9.70;99.90;;;;;;5051917;28;19924;-78
2021/12/31 01:08:37;;;;;;;;;;;9.60;99.90;;;;;;5026990;28;20273;-78
2021/12/31 01:11:03;;;;;;;;;;;9.50;99.90;;;;;;5051481;28;19939;-77
2021/12/31 01:13:37;;;;;;;;;;;9.50;99.90;;;;;;5021613;28;20369;-78
2021/12/31 01:16:04;;;;;;;;;;;9.50;99.90;;;;;;5053272;28;20263;-78
2021/12/31 01:21:15;;;;;;;;;;;9.40;99.90;;;;;;5022144;28;19928;-77
2021/12/31 01:23:41;;;;;;;;;;;9.40;99.90;;;;;;5015240;28;19997;-77
2021/12/31 01:26:07;;;;;;;;;;;9.40;99.90;;;;;;5022354;28;19913;-77
2021/12/31 01:28:32;;;;;;;;;;;9.40;99.90;;;;;;5021182;28;19967;-77
2021/12/31 01:30:58;;;;;;;;;;;9.50;99.90;;;;;;5019246;28;20380;-78
2021/12/31 01:33:23;;;;;;;;;;;9.50;99.90;;;;;;5020541;28;20368;-77
2021/12/31 01:35:49;;;;;;;;;;;9.50;99.90;;;;;;5022254;28;20383;-77
2021/12/31 01:38:16;;;;;;;;;;;9.70;99.90;;;;;;5019767;28;20388;-77
2021/12/31 01:40:41;;;;;;;;;;;9.70;99.90;;;;;;5020407;28;19909;-77
2021/12/31 01:43:07;;;;;;;;;;;9.70;99.90;;;;;;5022220;28;19921;-77
2021/12/31 01:45:42;;;;;;;;;;;9.80;99.90;;;;;;5020823;28;19920;-77
2021/12/31 01:48:21;;;;;;;;;;;9.80;99.90;;;;;;5024151;28;19913;-77
2021/12/31 01:50:46;;;;;;;;;;;9.70;99.90;;;;;;5022984;28;20403;-78
2021/12/31 01:53:13;;;;;;;;;;;9.80;99.90;;;;;;5026738;28;19921;-77
2021/12/31 01:55:39;;;;;;;;;;;9.80;99.90;;;;;;5021734;28;19928;-78
2021/12/31 01:58:07;;;;;;;;;;;9.90;99.90;;;;;;5025290;28;19931;-77
2021/12/31 02:00:34;;;;;;;;;;;9.90;99.90;;;;;;5039808;28;19969;-78
2021/12/31 02:03:00;;;;;;;;;;;9.80;99.90;;;;;;5040470;28;19953;-77
2021/12/31 02:05:26;;;;;;;;;;;9.80;99.90;;;;;;5040065;28;19913;-78
2021/12/31 02:07:52;;;;;;;;;;;9.90;99.90;;;;;;5041438;28;19927;-77
2021/12/31 02:10:18;;;;;;;;;;;9.90;99.90;;;;;;5039113;28;20368;-78
2021/12/31 02:12:46;;;;;;;;;;;9.90;99.90;;;;;;5042239;28;19966;-77
2021/12/31 02:15:12;;;;;;;;;;;9.80;99.90;;;;;;5039262;28;19932;-77
2021/12/31 02:17:37;;;;;;;;;;;9.90;99.90;;;;;;5027863;28;19913;-77
2021/12/31 02:20:05;;;;;;;;;;;9.90;99.90;;;;;;5044172;28;20274;-77
2021/12/31 02:22:35;;;;;;;;;;;9.90;99.90;;;;;;5025135;28;19913;-77
2021/12/31 02:25:01;;;;;;;;;;;9.90;99.90;;;;;;5024799;28;19921;-77
2021/12/31 02:27:27;;;;;;;;;;;10.00;99.90;;;;;;5039817;28;19963;-77
2021/12/31 02:29:53;;;;;;;;;;;10.00;99.90;;;;;;5040658;28;20120;-77
2021/12/31 02:32:18;;;;;;;;;;;10.00;99.90;;;;;;5042388;28;20297;-77
2021/12/31 02:34:44;;;;;;;;;;;10.00;99.90;;;;;;5020973;28;19909;-78
2021/12/31 02:37:09;;;;;;;;;;;10.00;99.90;;;;;;5041440;28;19916;-77
2021/12/31 02:39:38;;;;;;;;;;;10.00;99.90;;;;;;5022138;28;20360;-77
2021/12/31 02:42:05;;;;;;;;;;;10.00;99.90;;;;;;5023066;28;19909;-77
2021/12/31 02:44:30;;;;;;;;;;;9.90;99.90;;;;;;5040753;28;19920;-77
2021/12/31 02:46:56;;;;;;;;;;;10.00;99.90;;;;;;5022162;28;20372;-78
2021/12/31 02:49:24;;;;;;;;;;;10.00;99.90;;;;;;5050818;28;19999;-77
2021/12/31 02:51:49;;;;;;;;;;;10.00;99.90;;;;;;5049695;28;19917;-77
2021/12/31 02:54:15;;;;;;;;;;;10.10;99.90;;;;;;5029188;28;19924;-78
2021/12/31 02:56:41;;;;;;;;;;;10.10;99.90;;;;;;5042761;28;20466;-77
2021/12/31 02:59:08;;;;;;;;;;;10.10;99.90;;;;;;5044512;28;20257;-77
2021/12/31 03:01:34;;;;;;;;;;;10.10;99.90;;;;;;5043169;28;19916;-77
2021/12/31 03:04:00;;;;;;;;;;;10.00;99.90;;;;;;5043901;28;19913;-77
2021/12/31 03:06:26;;;;;;;;;;;10.00;99.90;;;;;;5041926;28;19928;-78
2021/12/31 03:08:52;;;;;;;;;;;10.00;99.90;;;;;;5048766;28;19923;-77
2021/12/31 03:11:19;;;;;;;;;;;10.00;99.90;;;;;;5042025;28;19913;-77
2021/12/31 03:13:45;;;;;;;;;;;10.00;99.90;;;;;;5028050;28;19959;-77
2021/12/31 03:16:11;;;;;;;;;;;10.00;99.90;;;;;;5042003;28;19963;-78
2021/12/31 03:18:36;;;;;;;;;;;9.90;99.90;;;;;;5046969;28;19909;-77
2021/12/31 03:21:08;;;;;;;;;;;9.90;99.90;;;;;;5031411;28;19912;-77
2021/12/31 03:23:34;;;;;;;;;;;9.90;99.90;;;;;;5012113;28;20376;-77
2021/12/31 03:26:00;;;;;;;;;;;9.90;99.90;;;;;;5026243;28;19991;-77
2021/12/31 03:28:26;;;;;;;;;;;9.90;99.90;;;;;;5027104;28;19917;-77
2021/12/31 03:30:51;;;;;;;;;;;9.90;99.90;;;;;;5041557;28;20012;-77
2021/12/31 03:33:17;;;;;;;;;;;9.90;99.90;;;;;;5027523;28;19963;-77
2021/12/31 03:35:42;;;;;;;;;;;9.90;99.90;;;;;;5042087;28;20329;-78
2021/12/31 03:38:08;;;;;;;;;;;9.90;99.90;;;;;;5029651;28;19917;-78
2021/12/31 03:40:34;;;;;;;;;;;9.90;99.90;;;;;;5025624;28;20506;-77
2021/12/31 03:42:59;;;;;;;;;;;9.90;99.90;;;;;;5043134;28;19955;-78
2021/12/31 03:45:25;;;;;;;;;;;9.90;99.90;;;;;;5045556;28;20299;-77
2021/12/31 03:47:51;;;;;;;;;;;9.90;99.90;;;;;;5061047;28;20465;-76
2021/12/31 03:50:16;;;;;;;;;;;9.80;99.90;;;;;;5063255;28;19980;-77
2021/12/31 03:52:42;;;;;;;;;;;9.80;99.90;;;;;;5028605;28;20633;-78
2021/12/31 03:55:08;;;;;;;;;;;9.90;99.90;;;;;;5041586;28;20284;-77
2021/12/31 03:57:34;;;;;;;;;;;9.90;99.90;;;;;;5028461;28;19920;-77
2021/12/31 04:00:00;;;;;;;;;;;9.90;99.90;;;;;;5042036;28;19909;-78
2021/12/31 04:02:25;;;;;;;;;;;9.90;99.90;;;;;;5045081;28;19916;-77
2021/12/31 04:04:51;;;;;;;;;;;10.00;99.90;;;;;;5037418;28;20331;-78
2021/12/31 04:07:17;;;;;;;;;;;9.90;99.90;;;;;;5046899;28;19924;-77
2021/12/31 04:09:42;;;;;;;;;;;9.80;99.90;;;;;;5048595;28;20359;-77
2021/12/31 04:12:08;;;;;;;;;;;9.80;99.90;;;;;;5042245;28;19913;-77
2021/12/31 04:14:33;;;;;;;;;;;9.80;99.90;;;;;;5042650;28;19916;-77
2021/12/31 04:16:59;;;;;;;;;;;9.80;99.90;;;;;;5025067;28;20007;-77
2021/12/31 04:19:24;;;;;;;;;;;9.80;99.90;;;;;;5027677;28;20023;-77
2021/12/31 04:21:50;;;;;;;;;;;9.80;99.90;;;;;;5044349;28;19908;-77
2021/12/31 04:24:29;;;;;;;;;;;9.80;99.90;;;;;;5043101;28;20326;-77
2021/12/31 04:26:55;;;;;;;;;;;9.70;99.90;;;;;;5044570;28;20025;-76
2021/12/31 04:29:20;;;;;;;;;;;9.70;99.90;;;;;;5022894;28;20410;-77
2021/12/31 04:31:46;;;;;;;;;;;9.60;99.90;;;;;;5043263;28;19916;-77
2021/12/31 04:34:11;;;;;;;;;;;9.60;99.90;;;;;;5041310;28;19974;-77
2021/12/31 04:36:37;;;;;;;;;;;9.60;99.90;;;;;;5024600;28;19920;-77
2021/12/31 04:39:02;;;;;;;;;;;9.60;99.90;;;;;;5043561;28;19914;-77
2021/12/31 04:41:28;;;;;;;;;;;9.60;99.90;;;;;;5043153;28;20322;-77
2021/12/31 04:43:53;;;;;;;;;;;9.60;99.90;;;;;;5040555;28;19932;-77
2021/12/31 04:46:19;;;;;;;;;;;9.60;99.90;;;;;;5022647;28;20271;-77
2021/12/31 04:48:44;;;;;;;;;;;9.60;99.90;;;;;;5043311;28;20376;-77
2021/12/31 04:51:10;;;;;;;;;;;9.60;99.90;;;;;;5029393;28;19916;-77
2021/12/31 04:53:35;;;;;;;;;;;9.60;99.90;;;;;;5043775;28;19964;-77
2021/12/31 04:56:01;;;;;;;;;;;9.50;99.90;;;;;;5042551;28;20372;-77
2021/12/31 04:58:26;;;;;;;;;;;9.50;99.90;;;;;;5007771;28;19913;-77
2021/12/31 05:00:52;;;;;;;;;;;9.50;99.90;;;;;;5025088;28;19924;-77
2021/12/31 05:03:18;;;;;;;;;;;9.50;99.90;;;;;;5043762;28;20372;-77
2021/12/31 05:05:43;;;;;;;;;;;9.50;99.90;;;;;;5048846;28;19913;-77
2021/12/31 05:08:09;;;;;;;;;;;9.50;99.90;;;;;;5040623;28;19913;-77
2021/12/31 05:10:34;;;;;;;;;;;9.40;99.90;;;;;;5022992;28;20419;-78
2021/12/31 05:13:01;;;;;;;;;;;9.40;99.90;;;;;;5030312;28;19923;-78
2021/12/31 05:15:28;;;;;;;;;;;9.40;99.90;;;;;;5040584;28;19920;-78
2021/12/31 05:17:54;;;;;;;;;;;9.40;99.90;;;;;;5024838;28;19955;-78
2021/12/31 05:20:20;;;;;;;;;;;9.40;99.90;;;;;;5039706;28;19963;-78
2021/12/31 05:22:45;;;;;;;;;;;9.40;99.90;;;;;;5024960;28;19921;-78
2021/12/31 05:25:11;;;;;;;;;;;9.30;99.90;;;;;;5045741;28;20303;-78
2021/12/31 05:27:37;;;;;;;;;;;9.20;99.90;;;;;;5007165;28;19928;-78
2021/12/31 05:30:03;;;;;;;;;;;9.30;99.90;;;;;;5023963;28;19924;-78
2021/12/31 05:32:29;;;;;;;;;;;9.20;99.90;;;;;;5039704;28;19917;-78
2021/12/31 05:34:54;;;;;;;;;;;9.20;99.90;;;;;;5042656;28;19919;-78
2021/12/31 05:37:20;;;;;;;;;;;9.20;99.90;;;;;;5039166;28;19913;-78
2021/12/31 05:39:45;;;;;;;;;;;9.10;99.90;;;;;;5042547;28;19915;-78
2021/12/31 05:42:11;;;;;;;;;;;9.10;99.90;;;;;;5040278;28;20058;-78
2021/12/31 05:44:37;;;;;;;;;;;9.10;99.90;;;;;;5021467;28;20008;-78
2021/12/31 05:47:02;;;;;;;;;;;9.10;99.90;;;;;;5041083;28;19917;-78
2021/12/31 05:49:28;;;;;;;;;;;9.10;99.90;;;;;;5042327;28;19920;-78
2021/12/31 05:51:54;;;;;;;;;;;9.10;99.90;;;;;;5039478;28;20649;-78
2021/12/31 05:54:20;;;;;;;;;;;9.10;99.90;;;;;;5042386;28;19917;-78
2021/12/31 05:56:46;;;;;;;;;;;9.10;99.90;;;;;;5039278;28;19917;-78
2021/12/31 05:59:11;;;;;;;;;;;9.10;99.90;;;;;;5042294;28;19920;-78
2021/12/31 06:01:37;;;;;;;;;;;9.10;99.90;;;;;;5043111;28;20326;-77
2021/12/31 06:04:02;;;;;;;;;;;9.10;99.90;;;;;;5040663;28;20392;-78
2021/12/31 06:06:28;;;;;;;;;;;9.10;99.90;;;;;;5041696;28;20357;-78
2021/12/31 06:08:53;;;;;;;;;;;9.10;99.90;;;;;;5042883;28;19913;-78
2021/12/31 06:11:19;;;;;;;;;;;9.10;99.90;;;;;;5021350;28;20484;-78
2021/12/31 06:13:49;;;;;;;;;;;9.10;99.90;;;;;;5021113;28;20484;-78
2021/12/31 06:16:15;;;;;;;;;;;9.20;99.90;;;;;;5041797;28;19991;-78
2021/12/31 06:18:40;;;;;;;;;;;9.20;99.90;;;;;;5038055;28;20000;-78
2021/12/31 06:21:06;;;;;;;;;;;9.20;99.90;;;;;;5019747;28;19920;-78
2021/12/31 06:23:32;;;;;;;;;;;9.10;99.90;;;;;;5043068;28;20427;-78
2021/12/31 06:25:57;;;;;;;;;;;9.10;99.90;;;;;;5028254;28;19927;-78
2021/12/31 06:28:23;;;;;;;;;;;9.10;99.90;;;;;;5050167;28;19921;-78
2021/12/31 06:30:49;;;;;;;;;;;9.10;99.90;;;;;;5042625;28;19913;-78
2021/12/31 06:33:14;;;;;;;;;;;9.20;99.90;;;;;;5045506;28;20275;-78
2021/12/31 06:35:40;;;;;;;;;;;9.20;99.90;;;;;;5026430;28;19987;-78
2021/12/31 06:38:06;;;;;;;;;;;9.20;99.90;;;;;;5044659;28;20281;-78
2021/12/31 06:40:34;;;;;;;;;;;9.20;99.90;;;;;;5044165;28;19932;-78
2021/12/31 06:43:00;;;;;;;;;;;9.20;99.90;;;;;;5029344;28;19908;-78
2021/12/31 06:45:26;;;;;;;;;;;9.20;99.90;;;;;;5046074;28;19959;-77
2021/12/31 06:47:51;;;;;;;;;;;9.20;99.90;;;;;;5024315;28;19975;-78
2021/12/31 06:50:17;;;;;;;;;;;9.20;99.90;;;;;;5028716;28;19917;-78
2021/12/31 06:52:43;;;;;;;;;;;9.20;99.90;;;;;;5043681;28;19913;-78
2021/12/31 06:55:09;;;;;;;;;;;9.20;99.90;;;;;;5038907;28;19971;-78
2021/12/31 06:57:35;;;;;;;;;;;9.10;99.90;;;;;;5039046;28;19908;-78
2021/12/31 07:00:01;;;;;;;;;;;9.10;99.90;;;;;;5047227;28;19913;-78
2021/12/31 07:02:26;;;;;;;;;;;9.10;99.90;;;;;;5046689;28;20409;-78
2021/12/31 07:04:52;;;;;;;;;;;9.10;99.90;;;;;;5029050;28;20331;-78
2021/12/31 07:07:17;;;;;;;;;;;9.20;99.90;;;;;;5042346;28;20364;-78
2021/12/31 07:09:43;;;;;;;;;;;9.20;99.90;;;;;;5024810;28;20376;-78
2021/12/31 07:12:08;;;;;;;;;;;9.10;99.90;;;;;;5043979;28;19916;-78
2021/12/31 07:14:34;;;;;;;;;;;9.20;99.90;;;;;;5026624;28;20478;-77
2021/12/31 07:16:59;;;;;;;;;;;9.10;99.90;;;;;;5047002;28;19959;-78
2021/12/31 07:19:25;;;;;;;;;;;9.10;99.90;;;;;;5032867;28;19975;-78
2021/12/31 07:21:50;;;;;;;;;;;9.10;99.90;;;;;;5058002;28;19917;-77
2021/12/31 07:24:16;;;;;;;;;;;9.10;99.90;;;;;;5044389;28;19935;-78
2021/12/31 07:26:42;;;;;;;;;;;9.10;99.90;;;;;;5052751;28;19943;-78
2021/12/31 07:29:07;;;;;;;;;;;9.10;99.90;;;;;;5043085;28;19974;-78
2021/12/31 07:31:33;;;;;;;;;;;9.20;99.90;;;;;;5027325;28;19939;-78
2021/12/31 07:33:59;;;;;;;;;;;9.20;99.90;;;;;;5041550;28;19919;-78
2021/12/31 07:36:26;;;;;;;;;;;9.30;99.90;;;;;;5027741;28;19913;-78
2021/12/31 07:38:57;;;;;;;;;;;9.30;99.90;;;;;;5050311;28;19928;-77
2021/12/31 07:41:22;;;;;;;;;;;9.30;99.90;;;;;;5068042;28;19927;-77
2021/12/31 07:43:48;;;;;;;;;;;9.40;99.90;;;;;;5076034;28;19901;-78
2021/12/31 07:46:13;;;;;;;;;;;9.30;99.90;;;;;;5060477;28;19909;-78
2021/12/31 07:48:39;;;;;;;;;;;9.30;99.90;;;;;;5071939;28;19909;-81
2021/12/31 07:51:05;;;;;;;;;;;9.40;99.90;;;;;;5057481;28;19923;-81
2021/12/31 07:53:30;;;;;;;;;;;9.50;99.90;;;;;;5043659;28;20027;-81
2021/12/31 07:55:56;;;;;;;;;;;9.50;99.90;;;;;;5027855;28;20327;-81
2021/12/31 07:58:22;;;;;;;;;;;9.50;99.90;;;;;;5025795;28;19912;-81
2021/12/31 08:00:48;;;;;;;;;;;9.50;99.90;;;;;;5026800;28;20007;-81
2021/12/31 08:03:15;;;;;;;;;;;9.60;99.90;;;;;;5043545;28;19997;-81
2021/12/31 08:05:40;;;;;;;;;;;9.60;99.90;;;;;;5044225;28;19921;-80
2021/12/31 08:08:06;;;;;;;;;;;9.60;99.90;;;;;;5045970;28;19912;-80
2021/12/31 08:10:32;;;;;;;;;;;9.60;99.90;;;;;;5008820;28;20451;-80
2021/12/31 08:13:00;;;;;;;;;;;9.50;99.90;;;;;;5043545;28;19958;-80
2021/12/31 08:15:26;;;;;;;;;;;9.60;99.90;;;;;;5046222;28;20440;-79
2021/12/31 08:17:52;;;;;;;;;;;9.60;99.90;;;;;;5044037;28;19917;-79
2021/12/31 08:20:18;;;;;;;;;;;9.70;99.90;;;;;;5041901;28;19919;-80
2021/12/31 08:22:44;;;;;;;;;;;9.70;99.90;;;;;;5024711;28;19916;-79
2021/12/31 08:25:09;;;;;;;;;;;9.70;99.90;;;;;;5032054;28;19917;-80
2021/12/31 08:27:35;;;;;;;;;;;9.70;99.90;;;;;;5042780;28;20018;-81
2021/12/31 08:30:00;;;;;;;;;;;9.70;99.90;;;;;;5043594;28;19916;-83
2021/12/31 08:32:26;;;;;;;;;;;9.90;99.90;;;;;;5041388;28;19936;-83
2021/12/31 08:34:51;;;;;;;;;;;9.80;99.90;;;;;;5026386;28;20292;-82
2021/12/31 08:37:17;;;;;;;;;;;9.80;99.90;;;;;;5045885;28;19924;-82
2021/12/31 08:39:42;;;;;;;;;;;9.80;99.90;;;;;;5043697;28;19909;-85
2021/12/31 08:42:08;;;;;;;;;;;9.90;99.90;;;;;;5043483;28;20033;-82
2021/12/31 08:44:34;;;;;;;;;;;9.90;99.90;;;;;;5034582;28;19917;-81
2021/12/31 08:46:59;;;;;;;;;;;9.90;99.90;;;;;;5037701;28;19913;-81
2021/12/31 08:49:25;;;;;;;;;;;9.90;99.90;;;;;;5045064;28;20372;-80
2021/12/31 08:51:50;;;;;;;;;;;10.00;99.90;;;;;;5040469;28;19913;-88
2021/12/31 08:54:16;;;;;;;;;;;10.10;99.90;;;;;;5042933;28;19913;-83
2021/12/31 08:56:43;;;;;;;;;;;10.10;99.90;;;;;;5044392;28;19908;-83
2021/12/31 08:59:09;;;;;;;;;;;10.10;99.90;;;;;;5042862;28;19908;-82
2021/12/31 09:01:34;;;;;;;;;;;10.00;99.90;;;;;;5054679;28;19913;-83
2021/12/31 09:04:00;;;;;;;;;;;10.10;99.90;;;;;;5043530;28;19917;-82
2021/12/31 09:06:26;;;;;;;;;;;10.10;99.90;;;;;;5046031;28;19984;-82
2021/12/31 09:08:51;;;;;;;;;;;10.00;99.90;;;;;;5045235;28;19944;-82
2021/12/31 09:11:17;;;;;;;;;;;10.00;99.90;;;;;;5027077;28;20416;-83
2021/12/31 09:13:43;;;;;;;;;;;10.00;99.90;;;;;;5022878;28;19913;-83
2021/12/31 09:16:09;;;;;;;;;;;10.10;99.90;;;;;;5046742;28;19908;-79
2021/12/31 09:18:35;;;;;;;;;;;9.90;99.90;;;;;;5040343;28;19909;-83
2021/12/31 09:21:01;;;;;;;;;;;9.90;99.90;;;;;;5022920;28;19932;-92
2021/12/31 09:23:27;;;;;;;;;;;10.00;99.90;;;;;;5043801;28;19904;-82
2021/12/31 09:25:52;;;;;;;;;;;10.10;99.90;;;;;;5040892;28;19924;-83
2021/12/31 09:28:18;;;;;;;;;;;10.10;99.90;;;;;;5022096;28;19909;-81
2021/12/31 09:30:43;;;;;;;;;;;10.20;99.90;;;;;;5029435;28;19917;-82
2021/12/31 09:33:09;;;;;;;;;;;10.20;99.90;;;;;;5046583;28;19909;-81
2021/12/31 09:35:34;;;;;;;;;;;10.20;99.90;;;;;;5010352;28;19913;-81
2021/12/31 09:38:00;;;;;;;;;;;10.30;99.90;;;;;;5026995;28;20303;-81
2021/12/31 09:40:26;;;;;;;;;;;10.40;99.90;;;;;;5045770;28;19922;-81
2021/12/31 09:43:21;;;;;;;;;;;10.50;99.90;;;;;;5032605;28;19908;-79
2021/12/31 09:45:50;;;;;;;;;;;10.60;99.90;;;;;;5023917;28;19917;-81
2021/12/31 09:48:23;;;;;;;;;;;10.90;99.90;;;;;;5046122;28;19912;-82
2021/12/31 09:50:49;;;;;;;;;;;10.80;99.90;;;;;;5027190;28;19913;-81
2021/12/31 09:53:15;;;;;;;;;;;10.80;99.90;;;;;;5027111;28;19916;-82
2021/12/31 09:55:42;;;;;;;;;;;10.80;99.90;;;;;;5042643;28;19991;-84
2021/12/31 09:58:08;;;;;;;;;;;10.80;99.90;;;;;;5032535;28;20358;-82
2021/12/31 10:00:34;;;;;;;;;;;10.70;99.90;;;;;;5045109;28;19917;-81
2021/12/31 10:03:14;;;;;;;;;;;10.60;99.90;;;;;;5045373;28;19921;-81
2021/12/31 10:05:42;;;;;;;;;;;10.70;99.90;;;;;;5046060;28;20437;-82
2021/12/31 10:08:14;;;;;;;;;;;10.80;99.90;;;;;;5027210;28;20325;-82
2021/12/31 10:10:40;;;;;;;;;;;10.60;99.90;;;;;;5045344;28;19909;-81
2021/12/31 10:13:07;;;;;;;;;;;10.80;99.90;;;;;;5045725;28;19978;-82
2021/12/31 10:15:39;;;;;;;;;;;10.70;99.90;;;;;;5051286;28;19916;-82
2021/12/31 10:18:12;;;;;;;;;;;10.70;99.90;;;;;;5044835;28;20003;-82
2021/12/31 10:20:50;;;;;;;;;;;10.60;99.90;;;;;;5050189;28;19999;-81
2021/12/31 10:23:17;;;;;;;;;;;10.80;99.90;;;;;;5030497;28;19917;-82
2021/12/31 10:25:42;;;;;;;;;;;10.90;99.90;;;;;;5049663;28;19932;-90
2021/12/31 10:28:09;;;;;;;;;;;10.70;99.90;;;;;;5047594;28;19955;-82
2021/12/31 10:30:35;;;;;;;;;;;10.70;99.90;;;;;;5030895;28;19921;-82
2021/12/31 10:33:01;;;;;;;;;;;10.60;99.90;;;;;;5052176;28;19909;-83
2021/12/31 10:35:26;;;;;;;;;;;10.60;99.90;;;;;;5011717;28;19929;-82
2021/12/31 10:38:01;;;;;;;;;;;10.50;99.90;;;;;;5046351;28;19913;-83
2021/12/31 10:40:36;;;;;;;;;;;10.70;99.90;;;;;;5030399;28;19991;-82
2021/12/31 10:43:16;;;;;;;;;;;10.90;99.90;;;;;;5049238;28;19924;-81
2021/12/31 10:46:01;;;;;;;;;;;10.90;99.90;;;;;;5042412;28;19920;-82
2021/12/31 10:48:47;;;;;;;;;;;10.90;99.90;;;;;;5042248;28;19908;-82
2021/12/31 10:51:34;;;;;;;;;;;10.80;99.90;;;;;;5044497;28;19913;-82
2021/12/31 10:54:15;;;;;;;;;;;10.80;99.90;;;;;;5038691;28;19991;-82
2021/12/31 10:56:41;;;;;;;;;;;10.90;99.90;;;;;;5029434;28;20274;-80
2021/12/31 10:59:07;;;;;;;;;;;10.90;99.90;;;;;;5049035;28;19907;-82
2021/12/31 11:01:32;;;;;;;;;;;10.90;99.90;;;;;;5047923;28;19920;-79
2021/12/31 11:03:58;;;;;;;;;;;11.00;99.90;;;;;;5081421;28;19908;-83
2021/12/31 11:06:24;;;;;;;;;;;11.40;99.90;;;;;;5048579;28;19975;-82
2021/12/31 11:08:50;;;;;;;;;;;11.40;99.90;;;;;;5042090;28;19968;-82
2021/12/31 11:11:18;;;;;;;;;;;11.30;99.90;;;;;;5054056;28;19944;-83
2021/12/31 11:13:45;;;;;;;;;;;11.10;99.90;;;;;;5063367;28;19912;-83
2021/12/31 11:16:12;;;;;;;;;;;11.00;99.90;;;;;;5033750;28;20016;-82
2021/12/31 11:18:39;;;;;;;;;;;10.80;99.90;;;;;;5055044;28;19920;-82
2021/12/31 11:21:06;;;;;;;;;;;10.90;99.90;;;;;;5031254;28;19914;-82
2021/12/31 11:23:32;;;;;;;;;;;10.80;99.90;;;;;;5043713;28;19986;-82
2021/12/31 11:26:04;;;;;;;;;;;10.90;99.90;;;;;;5036053;28;20243;-85
2021/12/31 11:28:31;;;;;;;;;;;10.90;99.90;;;;;;5043304;28;19921;-83
2021/12/31 11:31:16;;;;;;;;;;;10.80;99.90;;;;;;5046996;28;19916;-84
2021/12/31 11:33:43;;;;;;;;;;;10.90;99.90;;;;;;5023676;28;19955;-83
2021/12/31 11:36:11;;;;;;;;;;;10.90;99.90;;;;;;5029231;28;20375;-85
2021/12/31 11:38:41;;;;;;;;;;;11.00;99.90;;;;;;5045416;28;19923;-84
2021/12/31 11:41:08;;;;;;;;;;;10.90;99.90;;;;;;5028157;28;19916;-90
2021/12/31 11:43:34;;;;;;;;;;;10.70;99.90;;;;;;5008394;28;19917;-84
2021/12/31 11:46:09;;;;;;;;;;;10.80;99.90;;;;;;5023814;28;20003;-88
2021/12/31 11:48:47;;;;;;;;;;;10.70;99.90;;;;;;5045377;28;20304;-79
2021/12/31 11:51:18;;;;;;;;;;;10.70;99.90;;;;;;5043349;28;19962;-79
2021/12/31 11:53:57;;;;;;;;;;;10.70;99.90;;;;;;5026139;28;19919;-80
2021/12/31 11:56:34;;;;;;;;;;;10.70;99.90;;;;;;5041434;28;20368;-80
2021/12/31 11:59:12;;;;;;;;;;;10.70;99.90;;;;;;5046051;28;19909;-83
2021/12/31 12:01:38;;;;;;;;;;;10.70;99.90;;;;;;5042024;28;19912;-80
2021/12/31 12:04:22;;;;;;;;;;;10.80;99.90;;;;;;5025240;28;20368;-82
2021/12/31 12:07:01;;;;;;;;;;;10.90;99.90;;;;;;5047034;28;19917;-80
2021/12/31 12:09:35;;;;;;;;;;;11.00;99.90;;;;;;5050014;28;19970;-79
2021/12/31 12:12:01;;;;;;;;;;;11.10;99.90;;;;;;5028845;28;19913;-80
2021/12/31 12:14:27;;;;;;;;;;;11.20;99.90;;;;;;5028615;28;19919;-79
2021/12/31 12:16:57;;;;;;;;;;;11.20;99.90;;;;;;5023791;28;20019;-80
2021/12/31 12:19:23;;;;;;;;;;;11.10;99.90;;;;;;5045204;28;19917;-80
2021/12/31 12:21:57;;;;;;;;;;;11.10;99.90;;;;;;5023940;28;20388;-79
2021/12/31 12:24:23;;;;;;;;;;;11.20;99.90;;;;;;5039085;28;20364;-79
2021/12/31 12:26:48;;;;;;;;;;;11.30;99.90;;;;;;5010153;28;19992;-79
2021/12/31 12:29:25;;;;;;;;;;;11.40;99.90;;;;;;5045590;28;19979;-80
2021/12/31 12:32:06;;;;;;;;;;;11.50;99.90;;;;;;5030519;28;19921;-80
2021/12/31 12:34:32;;;;;;;;;;;11.60;99.90;;;;;;5045222;28;19916;-80
2021/12/31 12:36:57;;;;;;;;;;;11.60;99.90;;;;;;5008212;28;20125;-81
2021/12/31 12:39:23;;;;;;;;;;;11.60;99.90;;;;;;5044635;28;19917;-80
2021/12/31 12:41:50;;;;;;;;;;;11.60;99.90;;;;;;5043295;28;19919;-80
2021/12/31 12:44:18;;;;;;;;;;;11.60;99.90;;;;;;5043896;28;19921;-80
2021/12/31 12:46:54;;;;;;;;;;;11.70;99.90;;;;;;5026376;28;20411;-80
2021/12/31 12:49:20;;;;;;;;;;;11.70;99.90;;;;;;5044545;28;19940;-80
2021/12/31 12:51:46;;;;;;;;;;;11.70;99.90;;;;;;5024482;28;20340;-80
2021/12/31 12:54:17;;;;;;;;;;;11.70;99.90;;;;;;5009871;28;19928;-80
2021/12/31 12:56:42;;;;;;;;;;;11.70;99.90;;;;;;5045421;28;19963;-80
2021/12/31 12:59:10;;;;;;;;;;;11.70;99.90;;;;;;5028086;28;20314;-80
2021/12/31 13:01:35;;;;;;;;;;;11.60;99.90;;;;;;5030598;28;19917;-81
2021/12/31 13:04:01;;;;;;;;;;;11.60;99.90;;;;;;5043222;28;19912;-80
2021/12/31 13:06:27;;;;;;;;;;;11.60;99.90;;;;;;5046530;28;19927;-81
2021/12/31 13:09:02;;;;;;;;;;;11.70;99.90;;;;;;5024965;28;19912;-80
2021/12/31 13:11:28;;;;;;;;;;;11.80;99.90;;;;;;5023827;28;19909;-80
2021/12/31 13:13:53;;;;;;;;;;;11.90;99.90;;;;;;5025708;28;19916;-80
2021/12/31 13:16:19;;;;;;;;;;;12.00;99.90;;;;;;5024507;28;20446;-80
2021/12/31 13:18:53;;;;;;;;;;;12.00;99.90;;;;;;5040057;28;20426;-84
2021/12/31 13:21:20;;;;;;;;;;;12.00;99.90;;;;;;5025862;28;20000;-80
2021/12/31 13:23:51;;;;;;;;;;;12.00;99.90;;;;;;5042659;28;19935;-80
2021/12/31 13:26:16;;;;;;;;;;;12.10;99.90;;;;;;5027031;28;20458;-78
2021/12/31 13:28:42;;;;;;;;;;;12.20;99.90;;;;;;5038009;28;19916;-77
2021/12/31 13:31:10;;;;;;;;;;;12.10;99.90;;;;;;5022796;28;19948;-78
2021/12/31 13:33:46;;;;;;;;;;;12.10;99.90;;;;;;5042512;28;20405;-77
2021/12/31 13:36:11;;;;;;;;;;;12.10;99.90;;;;;;5044222;28;19913;-77
2021/12/31 13:38:56;;;;;;;;;;;12.20;99.90;;;;;;5025297;28;19916;-78
2021/12/31 13:41:21;;;;;;;;;;;12.20;99.90;;;;;;5024693;28;20616;-79
2021/12/31 13:43:54;;;;;;;;;;;12.20;99.90;;;;;;5028812;28;19916;-77
2021/12/31 13:46:44;;;;;;;;;;;12.40;99.90;;;;;;5026863;28;19921;-76
2021/12/31 13:49:17;;;;;;;;;;;12.60;99.90;;;;;;5043058;28;19971;-78
2021/12/31 13:51:42;;;;;;;;;;;12.70;99.90;;;;;;5025888;28;20364;-78
2021/12/31 13:54:12;;;;;;;;;;;12.80;99.90;;;;;;5022264;28;19924;-77
2021/12/31 13:56:42;;;;;;;;;;;12.80;99.90;;;;;;5025022;28;19917;-80
2021/12/31 13:59:38;;;;;;;;;;;12.80;99.90;;;;;;5021526;28;20422;-78
2021/12/31 14:02:29;;;;;;;;;;;12.70;99.90;;;;;;5024145;28;19917;-77
2021/12/31 14:04:58;;;;;;;;;;;12.60;99.90;;;;;;5040648;28;19917;-77
2021/12/31 14:07:35;;;;;;;;;;;12.60;99.90;;;;;;5026100;28;19980;-77
2021/12/31 14:10:03;;;;;;;;;;;12.60;99.90;;;;;;5038586;28;19916;-76
2021/12/31 14:12:29;;;;;;;;;;;12.40;99.90;;;;;;5023376;28;20149;-76
2021/12/31 14:14:54;;;;;;;;;;;12.50;99.90;;;;;;5016123;28;20368;-76
2021/12/31 14:17:20;;;;;;;;;;;12.50;99.90;;;;;;5023725;28;19913;-77
2021/12/31 14:19:45;;;;;;;;;;;12.40;99.90;;;;;;5021739;28;19920;-79
2021/12/31 14:22:11;;;;;;;;;;;12.40;99.90;;;;;;5046210;28;19913;-74
2021/12/31 14:24:37;;;;;;;;;;;12.30;99.90;;;;;;5018557;28;20296;-79
2021/12/31 14:27:04;;;;;;;;;;;12.10;99.90;;;;;;5041567;28;19954;-75